createdAt,value
2023-11-13T00:00:34.191Z,1.05
2023-11-13T00:03:36.218Z,1.00
2023-11-13T00:06:40.915Z,1.00
2023-11-13T00:09:45.565Z,0.98
2023-11-13T00:16:05.686Z,0.80
2023-11-13T00:22:24.143Z,0.90
2023-11-13T00:25:38.397Z,0.90
2023-11-13T00:28:40.025Z,0.90
2023-11-13T00:31:58.179Z,0.80
2023-11-13T00:34:59.832Z,0.80
2023-11-13T00:38:01.403Z,0.80
2023-11-13T00:44:25.987Z,0.90
2023-11-13T00:47:29.204Z,0.90
2023-11-13T00:50:37.207Z,0.82
2023-11-13T00:53:40.227Z,0.90
2023-11-13T00:56:51.061Z,0.98
2023-11-13T00:59:54.564Z,1.00
2023-11-13T01:02:56.242Z,0.98
2023-11-13T01:05:58.126Z,1.00
2023-11-13T01:09:03.519Z,1.00
2023-11-13T01:12:05.508Z,0.80
2023-11-13T01:18:25.981Z,0.90
2023-11-13T01:21:33.848Z,1.00
2023-11-13T01:24:35.595Z,1.00
2023-11-13T01:27:37.205Z,0.90
2023-11-13T01:30:39.161Z,0.90
2023-11-13T01:33:46.866Z,1.10
2023-11-13T01:36:50.764Z,1.00
2023-11-13T01:39:55.462Z,1.00
2023-11-13T01:42:57.039Z,1.00
2023-11-13T01:46:09.591Z,1.02
2023-11-13T01:49:13.421Z,1.00
2023-11-13T01:52:15.411Z,1.17
2023-11-13T01:55:25.189Z,1.15
2023-11-13T01:58:28.111Z,1.55
2023-11-13T02:01:31.110Z,1.20
2023-11-13T02:04:32.993Z,1.27
2023-11-13T02:07:35.188Z,1.20
2023-11-13T02:10:37.014Z,1.23
2023-11-13T02:13:39.403Z,1.30
2023-11-13T02:16:41.505Z,1.30
2023-11-13T02:19:44.325Z,1.20
2023-11-13T02:22:46.588Z,1.30
2023-11-13T02:25:52.200Z,1.65
2023-11-13T02:29:02.348Z,1.50
2023-11-13T02:32:07.243Z,1.50
2023-11-13T02:35:09.479Z,1.75
2023-11-13T02:38:13.316Z,1.30
2023-11-13T02:41:17.607Z,1.20
2023-11-13T02:44:20.424Z,1.10
2023-11-13T02:47:29.706Z,1.20
2023-11-13T02:50:37.632Z,1.20
2023-11-13T02:53:39.390Z,1.40
2023-11-13T02:56:43.827Z,1.30
2023-11-13T02:59:45.551Z,1.40
2023-11-13T03:02:47.905Z,1.30
2023-11-13T03:05:53.832Z,1.40
2023-11-13T03:08:55.484Z,1.45
2023-11-13T03:11:58.121Z,1.30
2023-11-13T03:14:59.834Z,1.58
2023-11-13T03:18:01.539Z,1.40
2023-11-13T03:21:11.546Z,1.60
2023-11-13T03:24:13.293Z,1.38
2023-11-13T03:27:18.137Z,1.42
2023-11-13T03:30:19.877Z,1.60
2023-11-13T03:33:24.792Z,1.52
2023-11-13T03:36:26.417Z,1.70
2023-11-13T03:39:34.169Z,1.50
2023-11-13T03:42:36.365Z,1.40
2023-11-13T03:45:40.374Z,1.60
2023-11-13T03:48:41.952Z,1.60
2023-11-13T03:51:50.779Z,1.67
2023-11-13T03:54:54.383Z,1.58
2023-11-13T03:57:56.257Z,1.50
2023-11-13T04:00:58.250Z,1.50
2023-11-13T04:04:10.448Z,1.60
2023-11-13T04:07:14.319Z,1.33
2023-11-13T04:10:16.290Z,1.30
2023-11-13T04:13:21.136Z,1.70
2023-11-13T04:16:22.909Z,1.30
2023-11-13T04:19:32.971Z,1.20
2023-11-13T04:22:35.321Z,1.30
2023-11-13T04:25:37.003Z,1.20
2023-11-13T04:28:46.253Z,1.30
2023-11-13T04:31:47.858Z,1.30
2023-11-13T04:34:50.565Z,1.60
2023-11-13T04:37:54.850Z,1.40
2023-11-13T04:40:58.910Z,1.50
2023-11-13T04:44:01.995Z,2.00
2023-11-13T04:47:03.976Z,1.48
2023-11-13T04:50:07.094Z,1.75
2023-11-13T04:53:16.052Z,1.50
2023-11-13T04:56:17.650Z,1.40
2023-11-13T04:59:25.810Z,1.50
2023-11-13T05:02:27.412Z,1.40
2023-11-13T05:05:31.137Z,1.38
2023-11-13T05:08:36.003Z,1.50
2023-11-13T05:11:41.560Z,1.65
2023-11-13T05:14:43.256Z,1.80
2023-11-13T05:17:47.022Z,1.35
2023-11-13T05:20:48.643Z,1.52
2023-11-13T05:23:52.757Z,1.67
2023-11-13T05:26:56.862Z,1.70
2023-11-13T05:30:09.985Z,1.50
2023-11-13T05:33:13.566Z,2.78
2023-11-13T05:36:15.567Z,3.00
2023-11-13T05:42:37.324Z,1.70
2023-11-13T05:45:40.574Z,1.40
2023-11-13T05:48:45.096Z,1.38
2023-11-13T05:51:47.410Z,1.73
2023-11-13T05:54:54.833Z,1.67
2023-11-13T05:57:56.583Z,1.40
2023-11-13T06:01:01.191Z,1.40
2023-11-13T06:04:03.254Z,1.48
2023-11-13T06:07:05.093Z,1.42
2023-11-13T06:10:16.239Z,2.95
2023-11-13T06:13:33.983Z,2.90
2023-11-13T06:16:37.536Z,1.65
2023-11-13T06:19:40.530Z,1.50
2023-11-13T06:22:43.526Z,1.20
2023-11-13T06:25:48.604Z,1.40
2023-11-13T06:28:50.401Z,1.38
2023-11-13T06:31:55.302Z,1.50
2023-11-13T06:34:57.916Z,1.17
2023-11-13T06:37:59.504Z,1.35
2023-11-13T06:41:06.325Z,1.20
2023-11-13T06:44:09.284Z,1.27
2023-11-13T06:47:11.180Z,1.20
2023-11-13T06:50:12.796Z,1.40
2023-11-13T06:53:15.100Z,1.38
2023-11-13T06:56:19.820Z,1.20
2023-11-13T06:59:28.900Z,1.02
2023-11-13T07:02:30.606Z,1.10
2023-11-13T07:05:33.633Z,1.17
2023-11-13T07:08:41.774Z,1.30
2023-11-13T07:11:44.935Z,2.38
2023-11-13T07:14:54.149Z,1.48
2023-11-13T07:17:55.748Z,1.20
2023-11-13T07:21:03.899Z,1.30
2023-11-13T07:24:10.491Z,1.05
2023-11-13T07:27:15.215Z,1.20
2023-11-13T07:30:16.957Z,1.45
2023-11-13T07:33:19.436Z,1.10
2023-11-13T07:36:28.742Z,1.00
2023-11-13T07:39:35.346Z,0.90
2023-11-13T07:42:37.615Z,1.00
2023-11-13T07:45:39.863Z,1.00
2023-11-13T07:48:42.169Z,0.98
2023-11-13T07:51:44.689Z,0.90
2023-11-13T07:54:49.321Z,1.00
2023-11-13T07:57:52.144Z,0.88
2023-11-13T08:00:58.568Z,1.00
2023-11-13T08:04:08.536Z,1.30
2023-11-13T08:07:23.468Z,1.00
2023-11-13T08:10:27.675Z,1.13
2023-11-13T08:13:30.682Z,1.02
2023-11-13T08:16:39.823Z,1.10
2023-11-13T08:19:42.986Z,1.10
2023-11-13T08:22:48.484Z,2.30
2023-11-13T08:25:56.225Z,1.70
2023-11-13T08:29:03.713Z,1.70
2023-11-13T08:32:11.503Z,1.40
2023-11-13T08:35:13.700Z,1.40
2023-11-13T08:38:17.960Z,1.25
2023-11-13T08:41:23.155Z,1.30
2023-11-13T08:44:31.043Z,1.20
2023-11-13T08:47:32.940Z,1.30
2023-11-13T08:50:50.225Z,1.40
2023-11-13T08:53:58.999Z,1.58
2023-11-13T08:57:08.424Z,1.65
2023-11-13T09:00:22.899Z,1.30
2023-11-13T09:03:35.715Z,1.40
2023-11-13T09:10:28.632Z,1.20
2023-11-13T09:16:49.423Z,1.90
2023-11-13T09:19:51.441Z,1.30
2023-11-13T09:23:03.023Z,1.58
2023-11-13T09:26:05.949Z,1.40
2023-11-13T09:29:27.132Z,1.83
2023-11-13T09:32:30.930Z,1.48
2023-11-13T09:35:41.779Z,1.40
2023-11-13T09:38:52.632Z,1.40
2023-11-13T09:42:04.987Z,1.38
2023-11-13T09:45:07.338Z,1.33
2023-11-13T09:48:31.672Z,4.13
2023-11-13T09:51:36.104Z,6.40
2023-11-13T09:54:40.432Z,5.07
2023-11-13T09:57:46.953Z,3.95
2023-11-13T10:00:49.024Z,3.35
2023-11-13T10:04:09.591Z,2.00
2023-11-13T10:07:17.769Z,1.80
2023-11-13T10:10:29.678Z,3.28
2023-11-13T10:13:34.054Z,2.30
2023-11-13T10:16:58.575Z,1.90
2023-11-13T10:20:00.622Z,1.50
2023-11-13T10:23:09.653Z,1.45
2023-11-13T10:26:16.282Z,1.70
2023-11-13T10:29:42.714Z,1.35
2023-11-13T10:32:47.495Z,1.40
2023-11-13T10:36:14.337Z,1.35
2023-11-13T10:39:37.772Z,1.50
2023-11-13T10:42:50.973Z,1.40
2023-11-13T10:46:40.276Z,1.35
2023-11-13T10:49:42.697Z,1.30
2023-11-13T10:52:46.176Z,1.63
2023-11-13T10:55:48.711Z,1.50
2023-11-13T11:02:37.174Z,1.30
2023-11-13T11:05:43.885Z,1.75
2023-11-13T11:08:50.186Z,1.40
2023-11-13T11:15:36.062Z,1.40
2023-11-13T11:18:48.751Z,2.30
2023-11-13T11:22:08.879Z,1.60
2023-11-13T11:25:55.130Z,1.30
2023-11-13T11:28:56.790Z,1.20
2023-11-13T11:32:00.707Z,1.23
2023-11-13T11:35:04.148Z,1.50
2023-11-13T11:38:25.726Z,1.40
2023-11-13T11:42:01.876Z,1.50
2023-11-13T11:45:08.253Z,1.70
2023-11-13T11:51:26.218Z,1.20
2023-11-13T11:54:30.148Z,1.60
2023-11-13T11:57:32.058Z,1.48
2023-11-13T12:00:36.913Z,1.45
2023-11-13T12:03:39.055Z,1.40
2023-11-13T12:06:41.262Z,1.60
2023-11-13T12:09:43.698Z,1.50
2023-11-13T12:12:55.224Z,1.50
2023-11-13T12:15:58.170Z,1.70
2023-11-13T12:18:59.855Z,1.90
2023-11-13T12:22:04.740Z,2.25
2023-11-13T12:25:08.489Z,2.80
2023-11-13T12:28:10.419Z,1.77
2023-11-13T12:31:19.754Z,2.13
2023-11-13T12:34:31.438Z,2.20
2023-11-13T12:37:33.388Z,1.80
2023-11-13T12:40:47.185Z,1.50
2023-11-13T12:43:49.307Z,1.80
2023-11-13T12:46:55.696Z,1.60
2023-11-13T12:49:59.114Z,1.70
2023-11-13T12:53:01.246Z,1.63
2023-11-13T12:56:05.577Z,1.48
2023-11-13T12:59:10.729Z,1.90
2023-11-13T13:02:14.840Z,1.45
2023-11-13T13:05:31.315Z,1.50
2023-11-13T13:08:34.552Z,1.33
2023-11-13T13:11:39.482Z,1.73
2023-11-13T13:14:42.563Z,1.40
2023-11-13T13:18:00.287Z,1.42
2023-11-13T13:21:04.559Z,1.30
2023-11-13T13:24:09.456Z,1.40
2023-11-13T13:27:15.440Z,1.30
2023-11-13T13:30:20.280Z,1.20
2023-11-13T13:33:22.818Z,1.40
2023-11-13T13:36:29.485Z,1.40
2023-11-13T13:39:32.639Z,1.30
2023-11-13T13:43:01.605Z,1.20
2023-11-13T13:46:04.282Z,1.30
2023-11-13T13:49:25.554Z,1.40
2023-11-13T13:52:31.294Z,1.20
2023-11-13T13:55:47.124Z,1.27
2023-11-13T13:58:50.224Z,1.20
2023-11-13T14:01:53.777Z,1.20
2023-11-13T14:04:55.463Z,1.20
2023-11-13T14:08:02.309Z,1.35
2023-11-13T14:11:06.456Z,1.35
2023-11-13T14:14:08.299Z,1.20
2023-11-13T14:17:10.328Z,1.25
2023-11-13T14:20:16.738Z,1.00
2023-11-13T14:23:27.404Z,1.30
2023-11-13T14:26:31.189Z,1.45
2023-11-13T14:29:35.192Z,1.27
2023-11-13T14:32:36.777Z,1.13
2023-11-13T14:35:39.251Z,1.30
2023-11-13T14:38:47.165Z,1.17
2023-11-13T14:41:48.808Z,1.48
2023-11-13T14:44:53.988Z,1.20
2023-11-13T14:47:55.973Z,1.40
2023-11-13T14:50:57.915Z,2.47
2023-11-13T14:54:03.339Z,1.80
2023-11-13T15:00:35.763Z,1.30
2023-11-13T15:03:40.201Z,1.40
2023-11-13T15:06:44.237Z,1.25
2023-11-13T15:09:45.796Z,1.20
2023-11-13T15:12:48.168Z,1.40
2023-11-13T15:16:00.227Z,1.30
2023-11-13T15:19:04.662Z,1.67
2023-11-13T15:22:06.353Z,1.40
2023-11-13T15:25:14.249Z,1.35
2023-11-13T15:28:21.884Z,1.25
2023-11-13T15:31:25.802Z,1.40
2023-11-13T15:37:54.592Z,1.55
2023-11-13T15:40:58.385Z,1.45
2023-11-13T15:44:02.118Z,1.52
2023-11-13T15:47:04.486Z,1.30
2023-11-13T15:50:24.529Z,1.13
2023-11-13T15:53:29.129Z,1.30
2023-11-13T15:56:31.351Z,1.20
2023-11-13T15:59:39.661Z,1.20
2023-11-13T16:02:48.165Z,1.35
2023-11-13T16:05:56.370Z,1.30
2023-11-13T16:08:58.559Z,1.25
2023-11-13T16:12:01.137Z,1.33
2023-11-13T16:15:06.668Z,1.30
2023-11-13T16:18:28.652Z,1.13
2023-11-13T16:21:30.462Z,1.25
2023-11-13T16:24:34.897Z,1.30
2023-11-13T16:27:38.220Z,1.63
2023-11-13T16:30:41.067Z,1.27
2023-11-13T16:33:42.802Z,1.35
2023-11-13T16:36:45.154Z,1.50
2023-11-13T16:39:46.760Z,2.13
2023-11-13T16:42:52.784Z,3.45
2023-11-13T16:45:54.631Z,2.15
2023-11-13T16:48:56.260Z,1.80
2023-11-13T16:51:58.139Z,1.30
2023-11-13T16:54:59.798Z,1.40
2023-11-13T16:58:02.461Z,1.20
2023-11-13T17:01:08.093Z,1.02
2023-11-13T17:04:10.318Z,1.00
2023-11-13T17:07:12.209Z,1.10
2023-11-13T17:10:14.522Z,1.05
2023-11-13T17:13:16.374Z,1.10
2023-11-13T17:16:18.655Z,1.05
2023-11-13T17:19:27.217Z,1.02
2023-11-13T17:22:30.750Z,1.13
2023-11-13T17:25:35.628Z,1.20
2023-11-13T17:28:39.823Z,1.30
2023-11-13T17:31:44.943Z,1.10
2023-11-13T17:34:46.919Z,1.02
2023-11-13T17:37:51.504Z,1.17
2023-11-13T17:40:53.185Z,1.20
2023-11-13T17:43:54.934Z,1.00
2023-11-13T17:46:56.667Z,1.10
2023-11-13T17:50:05.063Z,1.08
2023-11-13T17:53:09.059Z,1.10
2023-11-13T17:56:18.207Z,1.40
2023-11-13T17:59:47.013Z,1.10
2023-11-13T18:02:49.308Z,0.93
2023-11-13T18:05:54.654Z,1.02
2023-11-13T18:09:08.972Z,1.17
2023-11-13T18:12:12.663Z,1.10
2023-11-13T18:15:20.707Z,1.50
2023-11-13T18:18:24.855Z,1.35
2023-11-13T18:21:29.607Z,1.20
2023-11-13T18:24:31.329Z,1.10
2023-11-13T18:27:51.474Z,1.20
2023-11-13T18:31:20.006Z,1.80
2023-11-13T18:34:30.559Z,1.60
2023-11-13T18:37:33.709Z,1.40
2023-11-13T18:40:37.094Z,1.60
2023-11-13T18:43:45.701Z,1.40
2023-11-13T18:46:52.962Z,1.20
2023-11-13T18:50:06.675Z,1.40
2023-11-13T18:53:12.616Z,1.33
2023-11-13T18:56:16.372Z,1.45
2023-11-13T18:59:32.741Z,1.35
2023-11-13T19:02:34.541Z,1.10
2023-11-13T19:05:36.312Z,1.90
2023-11-13T19:08:37.995Z,1.20
2023-11-13T19:11:43.598Z,1.33
2023-11-13T19:14:48.808Z,1.60
2023-11-13T19:17:50.686Z,1.70
2023-11-13T19:20:52.448Z,1.95
2023-11-13T19:23:59.683Z,1.77
2023-11-13T19:27:07.954Z,1.60
2023-11-13T19:30:10.157Z,1.50
2023-11-13T19:33:15.866Z,1.08
2023-11-13T19:36:20.144Z,1.50
2023-11-13T19:39:21.772Z,1.10
2023-11-13T19:42:51.058Z,1.05
2023-11-13T19:45:52.923Z,1.10
2023-11-13T19:48:54.865Z,0.90
2023-11-13T19:51:59.611Z,1.00
2023-11-13T19:55:01.757Z,0.90
2023-11-13T19:58:07.572Z,1.10
2023-11-13T20:04:27.428Z,1.20
2023-11-13T20:07:29.315Z,1.00
2023-11-13T20:10:38.007Z,0.93
2023-11-13T20:13:40.329Z,1.10
2023-11-13T20:16:45.282Z,1.20
2023-11-13T20:19:47.175Z,1.10
2023-11-13T20:22:48.827Z,1.10
2023-11-13T20:25:52.840Z,1.50
2023-11-13T20:28:54.470Z,1.40
2023-11-13T20:31:56.840Z,1.80
2023-11-13T20:35:05.693Z,1.75
2023-11-13T20:38:09.553Z,1.40
2023-11-13T20:41:19.875Z,1.40
2023-11-13T20:44:31.979Z,1.10
2023-11-13T20:47:37.491Z,1.00
2023-11-13T20:50:42.535Z,1.00
2023-11-13T20:53:44.511Z,1.10
2023-11-13T20:56:47.133Z,1.13
2023-11-13T20:59:50.323Z,1.10
2023-11-13T21:02:53.535Z,1.02
2023-11-13T21:06:06.833Z,1.10
2023-11-13T21:09:10.857Z,1.00
2023-11-13T21:12:26.445Z,1.15
2023-11-13T21:15:29.165Z,1.00
2023-11-13T21:18:31.031Z,0.90
2023-11-13T21:21:33.127Z,0.90
2023-11-13T21:24:34.684Z,0.90
2023-11-13T21:27:36.228Z,0.82
2023-11-13T21:30:44.187Z,0.82
2023-11-13T21:33:53.056Z,0.90
2023-11-13T21:40:34.562Z,0.90
2023-11-13T21:43:36.254Z,0.90
2023-11-13T21:46:37.812Z,0.90
2023-11-13T21:50:04.582Z,1.00
2023-11-13T21:53:14.708Z,1.00
2023-11-13T21:56:24.452Z,1.00
2023-11-13T21:59:30.808Z,0.90
2023-11-13T22:02:34.353Z,0.90
2023-11-13T22:05:36.824Z,1.08
2023-11-13T22:08:41.432Z,0.90
2023-11-13T22:11:43.105Z,0.90
2023-11-13T22:14:48.379Z,0.98
2023-11-13T22:17:50.465Z,0.98
2023-11-13T22:20:55.869Z,0.90
2023-11-13T22:23:57.940Z,0.87
2023-11-13T22:26:59.562Z,0.93
2023-11-13T22:30:02.396Z,0.82
2023-11-13T22:33:04.288Z,1.10
2023-11-13T22:36:09.148Z,0.98
2023-11-13T22:39:16.926Z,0.80
2023-11-13T22:42:18.996Z,0.80
2023-11-13T22:45:24.732Z,0.80
2023-11-13T22:48:26.392Z,0.80
2023-11-13T22:51:27.948Z,0.80
2023-11-13T22:54:29.662Z,0.90
2023-11-13T22:57:31.295Z,0.80
2023-11-13T23:00:40.210Z,0.80
2023-11-13T23:03:43.766Z,0.70
2023-11-13T23:06:45.715Z,0.70
2023-11-13T23:09:47.768Z,0.73
2023-11-13T23:12:49.427Z,0.60
2023-11-13T23:15:51.190Z,0.80
2023-11-13T23:18:55.699Z,0.90
2023-11-13T23:22:04.264Z,0.80
2023-11-13T23:25:14.914Z,0.80
2023-11-13T23:28:19.846Z,0.80
2023-11-13T23:31:21.863Z,0.75
2023-11-13T23:34:26.609Z,0.70
2023-11-13T23:37:29.024Z,0.80
2023-11-13T23:40:33.520Z,0.70
2023-11-13T23:43:36.452Z,0.70
2023-11-13T23:46:38.079Z,0.80
2023-11-13T23:49:41.917Z,0.80
2023-11-13T23:52:52.467Z,0.80
2023-11-13T23:55:54.807Z,0.80
2023-11-13T23:58:57.687Z,0.80
